sensor_id;sensor_type;location;lat;lon;timestamp;P1;durP1;ratioP1;P2;durP2;ratioP2
54454;SDS011;40364;52.270;10.546;2022-10-16T00:00:30;1.73;;;1.30;;
54454;SDS011;40364;52.270;10.546;2022-10-16T00:02:58;1.50;;;1.40;;
54454;SDS011;40364;52.270;10.546;2022-10-16T00:05:24;4.38;;;1.55;;
54454;SDS011;40364;52.270;10.546;2022-10-16T00:07:51;2.50;;;1.75;;
54454;SDS011;40364;52.270;10.546;2022-10-16T00:10:19;2.03;;;1.75;;
54454;SDS011;40364;52.270;10.546;2022-10-16T00:12:46;7.00;;;1.30;;
54454;SDS011;40364;52.270;10.546;2022-10-16T00:15:13;1.85;;;1.70;;
54454;SDS011;40364;52.270;10.546;2022-10-16T00:17:40;4.72;;;1.48;;
54454;SDS011;40364;52.270;10.546;2022-10-16T00:20:07;5.40;;;1.70;;
54454;SDS011;40364;52.270;10.546;2022-10-16T00:22:35;3.67;;;2.13;;
54454;SDS011;40364;52.270;10.546;2022-10-16T00:25:06;4.18;;;1.73;;
54454;SDS011;40364;52.270;10.546;2022-10-16T00:27:35;2.72;;;1.45;;
54454;SDS011;40364;52.270;10.546;2022-10-16T00:30:02;5.03;;;1.77;;
54454;SDS011;40364;52.270;10.546;2022-10-16T00:32:30;1.52;;;1.38;;
54454;SDS011;40364;52.270;10.546;2022-10-16T00:34:56;2.50;;;1.40;;
54454;SDS011;40364;52.270;10.546;2022-10-16T00:37:23;3.03;;;1.55;;
54454;SDS011;40364;52.270;10.546;2022-10-16T00:39:51;4.18;;;1.58;;
54454;SDS011;40364;52.270;10.546;2022-10-16T00:42:18;4.32;;;1.48;;
54454;SDS011;40364;52.270;10.546;2022-10-16T00:44:48;4.47;;;1.70;;
54454;SDS011;40364;52.270;10.546;2022-10-16T00:47:19;2.75;;;1.77;;
54454;SDS011;40364;52.270;10.546;2022-10-16T00:49:49;2.95;;;1.42;;
54454;SDS011;40364;52.270;10.546;2022-10-16T00:52:17;2.75;;;1.55;;
54454;SDS011;40364;52.270;10.546;2022-10-16T00:54:45;1.80;;;1.55;;
54454;SDS011;40364;52.270;10.546;2022-10-16T00:57:13;3.10;;;1.50;;
54454;SDS011;40364;52.270;10.546;2022-10-16T00:59:40;2.45;;;1.63;;
54454;SDS011;40364;52.270;10.546;2022-10-16T01:02:11;1.67;;;1.40;;
54454;SDS011;40364;52.270;10.546;2022-10-16T01:04:40;2.92;;;1.52;;
54454;SDS011;40364;52.270;10.546;2022-10-16T01:07:11;3.25;;;1.67;;
54454;SDS011;40364;52.270;10.546;2022-10-16T01:09:44;2.10;;;1.58;;
54454;SDS011;40364;52.270;10.546;2022-10-16T01:12:20;2.35;;;1.40;;
54454;SDS011;40364;52.270;10.546;2022-10-16T01:14:56;1.75;;;1.42;;
54454;SDS011;40364;52.270;10.546;2022-10-16T01:17:31;4.82;;;1.50;;
54454;SDS011;40364;52.270;10.546;2022-10-16T01:20:07;2.08;;;1.33;;
54454;SDS011;40364;52.270;10.546;2022-10-16T01:22:39;2.10;;;1.42;;
54454;SDS011;40364;52.270;10.546;2022-10-16T01:25:18;2.85;;;1.42;;
54454;SDS011;40364;52.270;10.546;2022-10-16T01:27:52;1.80;;;1.60;;
54454;SDS011;40364;52.270;10.546;2022-10-16T01:30:21;2.67;;;1.75;;
54454;SDS011;40364;52.270;10.546;2022-10-16T01:32:52;1.83;;;1.20;;
54454;SDS011;40364;52.270;10.546;2022-10-16T01:35:23;1.70;;;1.23;;
54454;SDS011;40364;52.270;10.546;2022-10-16T01:37:54;1.75;;;1.40;;
54454;SDS011;40364;52.270;10.546;2022-10-16T01:40:26;4.63;;;1.73;;
54454;SDS011;40364;52.270;10.546;2022-10-16T01:42:56;1.90;;;1.50;;
54454;SDS011;40364;52.270;10.546;2022-10-16T01:45:26;3.35;;;1.30;;
54454;SDS011;40364;52.270;10.546;2022-10-16T01:47:56;4.07;;;1.60;;
54454;SDS011;40364;52.270;10.546;2022-10-16T01:50:29;1.95;;;1.30;;
54454;SDS011;40364;52.270;10.546;2022-10-16T01:52:59;3.47;;;1.70;;
54454;SDS011;40364;52.270;10.546;2022-10-16T01:55:28;2.05;;;1.67;;
54454;SDS011;40364;52.270;10.546;2022-10-16T01:58:00;2.83;;;1.80;;
54454;SDS011;40364;52.270;10.546;2022-10-16T02:00:29;2.17;;;1.50;;
54454;SDS011;40364;52.270;10.546;2022-10-16T02:02:57;3.75;;;2.22;;
54454;SDS011;40364;52.270;10.546;2022-10-16T02:05:28;2.00;;;1.77;;
54454;SDS011;40364;52.270;10.546;2022-10-16T02:07:58;1.98;;;1.70;;
54454;SDS011;40364;52.270;10.546;2022-10-16T02:10:25;1.98;;;1.65;;
54454;SDS011;40364;52.270;10.546;2022-10-16T02:12:56;1.95;;;1.55;;
54454;SDS011;40364;52.270;10.546;2022-10-16T02:15:28;2.88;;;1.85;;
54454;SDS011;40364;52.270;10.546;2022-10-16T02:17:54;2.15;;;1.70;;
54454;SDS011;40364;52.270;10.546;2022-10-16T02:20:22;3.10;;;1.95;;
54454;SDS011;40364;52.270;10.546;2022-10-16T02:22:53;3.85;;;1.77;;
54454;SDS011;40364;52.270;10.546;2022-10-16T02:25:24;1.95;;;1.60;;
54454;SDS011;40364;52.270;10.546;2022-10-16T02:27:57;2.28;;;1.77;;
54454;SDS011;40364;52.270;10.546;2022-10-16T02:30:30;3.35;;;1.92;;
54454;SDS011;40364;52.270;10.546;2022-10-16T02:33:02;6.22;;;1.90;;
54454;SDS011;40364;52.270;10.546;2022-10-16T02:38:07;4.35;;;2.38;;
54454;SDS011;40364;52.270;10.546;2022-10-16T02:40:35;9.43;;;2.28;;
54454;SDS011;40364;52.270;10.546;2022-10-16T02:43:03;3.08;;;1.98;;
54454;SDS011;40364;52.270;10.546;2022-10-16T02:45:32;2.97;;;1.85;;
54454;SDS011;40364;52.270;10.546;2022-10-16T02:47:58;8.32;;;2.50;;
54454;SDS011;40364;52.270;10.546;2022-10-16T02:50:25;2.70;;;2.30;;
54454;SDS011;40364;52.270;10.546;2022-10-16T02:52:52;6.85;;;2.42;;
54454;SDS011;40364;52.270;10.546;2022-10-16T02:55:19;4.68;;;2.25;;
54454;SDS011;40364;52.270;10.546;2022-10-16T02:57:45;4.00;;;2.00;;
54454;SDS011;40364;52.270;10.546;2022-10-16T03:00:12;4.55;;;2.40;;
54454;SDS011;40364;52.270;10.546;2022-10-16T03:02:42;4.03;;;2.60;;
54454;SDS011;40364;52.270;10.546;2022-10-16T03:05:09;6.28;;;2.50;;
54454;SDS011;40364;52.270;10.546;2022-10-16T03:07:36;5.75;;;2.30;;
54454;SDS011;40364;52.270;10.546;2022-10-16T03:10:03;7.20;;;2.50;;
54454;SDS011;40364;52.270;10.546;2022-10-16T03:12:30;5.10;;;2.25;;
54454;SDS011;40364;52.270;10.546;2022-10-16T03:14:57;5.85;;;2.30;;
54454;SDS011;40364;52.270;10.546;2022-10-16T03:17:24;4.72;;;2.30;;
54454;SDS011;40364;52.270;10.546;2022-10-16T03:19:52;4.20;;;2.50;;
54454;SDS011;40364;52.270;10.546;2022-10-16T03:22:19;5.20;;;2.42;;
54454;SDS011;40364;52.270;10.546;2022-10-16T03:24:45;6.35;;;2.22;;
54454;SDS011;40364;52.270;10.546;2022-10-16T03:27:12;4.93;;;2.40;;
54454;SDS011;40364;52.270;10.546;2022-10-16T03:29:39;5.53;;;2.13;;
54454;SDS011;40364;52.270;10.546;2022-10-16T03:32:05;3.53;;;2.10;;
54454;SDS011;40364;52.270;10.546;2022-10-16T03:34:32;2.55;;;2.05;;
54454;SDS011;40364;52.270;10.546;2022-10-16T03:37:00;4.70;;;2.10;;
54454;SDS011;40364;52.270;10.546;2022-10-16T03:39:27;3.80;;;1.83;;
54454;SDS011;40364;52.270;10.546;2022-10-16T03:41:53;3.15;;;1.90;;
54454;SDS011;40364;52.270;10.546;2022-10-16T03:44:20;4.80;;;2.20;;
54454;SDS011;40364;52.270;10.546;2022-10-16T03:46:46;4.85;;;2.08;;
54454;SDS011;40364;52.270;10.546;2022-10-16T03:49:13;3.67;;;2.60;;
54454;SDS011;40364;52.270;10.546;2022-10-16T03:51:39;5.22;;;2.50;;
54454;SDS011;40364;52.270;10.546;2022-10-16T03:54:07;5.25;;;2.35;;
54454;SDS011;40364;52.270;10.546;2022-10-16T03:56:36;5.57;;;2.22;;
54454;SDS011;40364;52.270;10.546;2022-10-16T03:59:02;5.72;;;2.13;;
54454;SDS011;40364;52.270;10.546;2022-10-16T04:01:29;4.38;;;2.20;;
54454;SDS011;40364;52.270;10.546;2022-10-16T04:03:56;7.72;;;2.50;;
54454;SDS011;40364;52.270;10.546;2022-10-16T04:06:22;5.25;;;2.90;;
54454;SDS011;40364;52.270;10.546;2022-10-16T04:08:49;5.63;;;2.75;;
54454;SDS011;40364;52.270;10.546;2022-10-16T04:11:17;5.80;;;2.72;;
54454;SDS011;40364;52.270;10.546;2022-10-16T04:13:43;3.55;;;2.10;;
54454;SDS011;40364;52.270;10.546;2022-10-16T04:16:10;7.47;;;2.47;;
54454;SDS011;40364;52.270;10.546;2022-10-16T04:18:37;8.23;;;2.25;;
54454;SDS011;40364;52.270;10.546;2022-10-16T04:21:03;7.70;;;2.33;;
54454;SDS011;40364;52.270;10.546;2022-10-16T04:23:31;3.67;;;2.25;;
54454;SDS011;40364;52.270;10.546;2022-10-16T04:25:59;4.57;;;2.60;;
54454;SDS011;40364;52.270;10.546;2022-10-16T04:28:28;17.63;;;2.78;;
54454;SDS011;40364;52.270;10.546;2022-10-16T04:30:55;4.13;;;2.25;;
54454;SDS011;40364;52.270;10.546;2022-10-16T04:33:21;3.10;;;1.98;;
54454;SDS011;40364;52.270;10.546;2022-10-16T04:35:48;4.47;;;2.03;;
54454;SDS011;40364;52.270;10.546;2022-10-16T04:38:15;2.92;;;1.75;;
54454;SDS011;40364;52.270;10.546;2022-10-16T04:40:42;2.25;;;1.80;;
54454;SDS011;40364;52.270;10.546;2022-10-16T04:43:08;3.95;;;2.35;;
54454;SDS011;40364;52.270;10.546;2022-10-16T04:45:37;3.95;;;2.42;;
54454;SDS011;40364;52.270;10.546;2022-10-16T04:48:03;4.40;;;2.45;;
54454;SDS011;40364;52.270;10.546;2022-10-16T04:50:30;4.30;;;2.47;;
54454;SDS011;40364;52.270;10.546;2022-10-16T04:52:56;2.67;;;2.20;;
54454;SDS011;40364;52.270;10.546;2022-10-16T04:55:26;6.05;;;2.40;;
54454;SDS011;40364;52.270;10.546;2022-10-16T04:57:53;4.45;;;2.35;;
54454;SDS011;40364;52.270;10.546;2022-10-16T05:00:19;4.82;;;2.15;;
54454;SDS011;40364;52.270;10.546;2022-10-16T05:02:49;4.13;;;2.33;;
54454;SDS011;40364;52.270;10.546;2022-10-16T05:05:16;4.07;;;2.25;;
54454;SDS011;40364;52.270;10.546;2022-10-16T05:07:44;3.63;;;2.05;;
54454;SDS011;40364;52.270;10.546;2022-10-16T05:10:11;6.22;;;2.50;;
54454;SDS011;40364;52.270;10.546;2022-10-16T05:12:37;3.15;;;2.58;;
54454;SDS011;40364;52.270;10.546;2022-10-16T05:15:05;7.43;;;2.67;;
54454;SDS011;40364;52.270;10.546;2022-10-16T05:17:32;6.07;;;2.70;;
54454;SDS011;40364;52.270;10.546;2022-10-16T05:20:00;5.28;;;3.03;;
54454;SDS011;40364;52.270;10.546;2022-10-16T05:22:27;5.03;;;3.20;;
54454;SDS011;40364;52.270;10.546;2022-10-16T05:24:53;5.50;;;2.58;;
54454;SDS011;40364;52.270;10.546;2022-10-16T05:27:20;4.82;;;2.72;;
54454;SDS011;40364;52.270;10.546;2022-10-16T05:29:47;4.13;;;2.50;;
54454;SDS011;40364;52.270;10.546;2022-10-16T05:32:14;4.68;;;2.67;;
54454;SDS011;40364;52.270;10.546;2022-10-16T05:34:42;3.67;;;2.63;;
54454;SDS011;40364;52.270;10.546;2022-10-16T05:37:10;4.70;;;2.47;;
54454;SDS011;40364;52.270;10.546;2022-10-16T05:39:38;5.22;;;2.38;;
54454;SDS011;40364;52.270;10.546;2022-10-16T05:42:05;3.67;;;2.28;;
54454;SDS011;40364;52.270;10.546;2022-10-16T05:44:32;2.70;;;2.30;;
54454;SDS011;40364;52.270;10.546;2022-10-16T05:46:59;4.25;;;2.80;;
54454;SDS011;40364;52.270;10.546;2022-10-16T05:49:25;4.45;;;2.50;;
54454;SDS011;40364;52.270;10.546;2022-10-16T05:51:52;3.83;;;2.17;;
54454;SDS011;40364;52.270;10.546;2022-10-16T05:54:20;3.15;;;2.45;;
54454;SDS011;40364;52.270;10.546;2022-10-16T05:56:47;6.20;;;2.75;;
54454;SDS011;40364;52.270;10.546;2022-10-16T05:59:13;3.25;;;2.45;;
54454;SDS011;40364;52.270;10.546;2022-10-16T06:01:40;4.95;;;2.97;;
54454;SDS011;40364;52.270;10.546;2022-10-16T06:04:07;3.15;;;2.60;;
54454;SDS011;40364;52.270;10.546;2022-10-16T06:06:34;4.47;;;2.45;;
54454;SDS011;40364;52.270;10.546;2022-10-16T06:09:01;3.88;;;2.70;;
54454;SDS011;40364;52.270;10.546;2022-10-16T06:11:30;3.28;;;2.55;;
54454;SDS011;40364;52.270;10.546;2022-10-16T06:13:59;3.33;;;2.28;;
54454;SDS011;40364;52.270;10.546;2022-10-16T06:16:31;6.22;;;2.40;;
54454;SDS011;40364;52.270;10.546;2022-10-16T06:18:58;4.18;;;2.90;;
54454;SDS011;40364;52.270;10.546;2022-10-16T06:21:25;7.45;;;2.30;;
54454;SDS011;40364;52.270;10.546;2022-10-16T06:23:54;3.47;;;2.17;;
54454;SDS011;40364;52.270;10.546;2022-10-16T06:26:22;8.85;;;2.30;;
54454;SDS011;40364;52.270;10.546;2022-10-16T06:28:51;3.78;;;2.58;;
54454;SDS011;40364;52.270;10.546;2022-10-16T06:31:17;3.40;;;2.50;;
54454;SDS011;40364;52.270;10.546;2022-10-16T06:33:49;3.05;;;2.40;;
54454;SDS011;40364;52.270;10.546;2022-10-16T06:36:17;5.20;;;2.30;;
54454;SDS011;40364;52.270;10.546;2022-10-16T06:38:45;3.25;;;2.58;;
54454;SDS011;40364;52.270;10.546;2022-10-16T06:41:13;7.50;;;2.67;;
54454;SDS011;40364;52.270;10.546;2022-10-16T06:43:42;4.35;;;2.53;;
54454;SDS011;40364;52.270;10.546;2022-10-16T06:46:11;5.90;;;2.60;;
54454;SDS011;40364;52.270;10.546;2022-10-16T06:48:40;3.20;;;2.47;;
54454;SDS011;40364;52.270;10.546;2022-10-16T06:51:08;6.43;;;2.78;;
54454;SDS011;40364;52.270;10.546;2022-10-16T06:53:38;5.60;;;2.70;;
54454;SDS011;40364;52.270;10.546;2022-10-16T06:56:07;4.70;;;2.97;;
54454;SDS011;40364;52.270;10.546;2022-10-16T06:58:35;3.70;;;2.47;;
54454;SDS011;40364;52.270;10.546;2022-10-16T07:01:02;4.00;;;2.85;;
54454;SDS011;40364;52.270;10.546;2022-10-16T07:03:31;4.63;;;2.58;;
54454;SDS011;40364;52.270;10.546;2022-10-16T07:06:00;5.63;;;2.65;;
54454;SDS011;40364;52.270;10.546;2022-10-16T07:08:28;4.22;;;2.20;;
54454;SDS011;40364;52.270;10.546;2022-10-16T07:10:59;4.38;;;2.20;;
54454;SDS011;40364;52.270;10.546;2022-10-16T07:13:27;4.63;;;2.38;;
54454;SDS011;40364;52.270;10.546;2022-10-16T07:15:54;3.40;;;2.20;;
54454;SDS011;40364;52.270;10.546;2022-10-16T07:18:21;5.28;;;2.45;;
54454;SDS011;40364;52.270;10.546;2022-10-16T07:20:52;2.90;;;2.50;;
54454;SDS011;40364;52.270;10.546;2022-10-16T07:23:19;2.92;;;2.13;;
54454;SDS011;40364;52.270;10.546;2022-10-16T07:25:53;3.45;;;2.40;;
54454;SDS011;40364;52.270;10.546;2022-10-16T07:28:22;5.80;;;2.30;;
54454;SDS011;40364;52.270;10.546;2022-10-16T07:30:48;4.72;;;2.65;;
54454;SDS011;40364;52.270;10.546;2022-10-16T07:33:15;3.75;;;2.42;;
54454;SDS011;40364;52.270;10.546;2022-10-16T07:35:49;6.25;;;2.47;;
54454;SDS011;40364;52.270;10.546;2022-10-16T07:38:18;8.65;;;2.53;;
54454;SDS011;40364;52.270;10.546;2022-10-16T07:40:44;3.50;;;2.30;;
54454;SDS011;40364;52.270;10.546;2022-10-16T07:43:12;3.03;;;2.05;;
54454;SDS011;40364;52.270;10.546;2022-10-16T07:45:46;3.00;;;2.00;;
54454;SDS011;40364;52.270;10.546;2022-10-16T07:48:15;3.17;;;2.05;;
54454;SDS011;40364;52.270;10.546;2022-10-16T07:50:42;8.00;;;1.90;;
54454;SDS011;40364;52.270;10.546;2022-10-16T07:53:11;2.65;;;1.73;;
54454;SDS011;40364;52.270;10.546;2022-10-16T07:55:40;2.97;;;1.70;;
54454;SDS011;40364;52.270;10.546;2022-10-16T07:58:09;4.78;;;1.52;;
54454;SDS011;40364;52.270;10.546;2022-10-16T08:00:36;3.75;;;1.33;;
54454;SDS011;40364;52.270;10.546;2022-10-16T08:03:03;2.53;;;1.48;;
54454;SDS011;40364;52.270;10.546;2022-10-16T08:05:31;3.80;;;1.25;;
54454;SDS011;40364;52.270;10.546;2022-10-16T08:08:00;4.57;;;1.38;;
54454;SDS011;40364;52.270;10.546;2022-10-16T08:10:29;6.00;;;2.17;;
54454;SDS011;40364;52.270;10.546;2022-10-16T08:12:58;2.15;;;1.35;;
54454;SDS011;40364;52.270;10.546;2022-10-16T08:15:24;5.15;;;1.40;;
54454;SDS011;40364;52.270;10.546;2022-10-16T08:17:55;1.95;;;1.10;;
54454;SDS011;40364;52.270;10.546;2022-10-16T08:20:24;1.80;;;1.35;;
54454;SDS011;40364;52.270;10.546;2022-10-16T08:22:52;10.25;;;2.03;;
54454;SDS011;40364;52.270;10.546;2022-10-16T08:25:20;2.92;;;1.33;;
54454;SDS011;40364;52.270;10.546;2022-10-16T08:27:47;3.78;;;1.70;;
54454;SDS011;40364;52.270;10.546;2022-10-16T08:30:17;2.72;;;1.45;;
54454;SDS011;40364;52.270;10.546;2022-10-16T08:32:53;4.78;;;1.92;;
54454;SDS011;40364;52.270;10.546;2022-10-16T08:35:20;3.70;;;1.48;;
54454;SDS011;40364;52.270;10.546;2022-10-16T08:37:47;5.03;;;1.33;;
54454;SDS011;40364;52.270;10.546;2022-10-16T08:40:16;2.58;;;1.20;;
54454;SDS011;40364;52.270;10.546;2022-10-16T08:42:53;6.70;;;1.50;;
54454;SDS011;40364;52.270;10.546;2022-10-16T08:45:36;2.35;;;1.35;;
54454;SDS011;40364;52.270;10.546;2022-10-16T08:48:21;6.70;;;1.40;;
54454;SDS011;40364;52.270;10.546;2022-10-16T08:50:53;2.65;;;1.17;;
54454;SDS011;40364;52.270;10.546;2022-10-16T08:53:22;5.70;;;1.27;;
54454;SDS011;40364;52.270;10.546;2022-10-16T08:55:53;5.28;;;2.25;;
54454;SDS011;40364;52.270;10.546;2022-10-16T08:58:21;1.75;;;1.00;;
54454;SDS011;40364;52.270;10.546;2022-10-16T09:00:52;1.77;;;0.93;;
54454;SDS011;40364;52.270;10.546;2022-10-16T09:03:23;1.88;;;1.02;;
54454;SDS011;40364;52.270;10.546;2022-10-16T09:08:57;2.80;;;1.10;;
54454;SDS011;40364;52.270;10.546;2022-10-16T09:11:36;2.25;;;0.77;;
54454;SDS011;40364;52.270;10.546;2022-10-16T09:14:15;5.13;;;0.90;;
54454;SDS011;40364;52.270;10.546;2022-10-16T09:17:03;3.42;;;0.80;;
54454;SDS011;40364;52.270;10.546;2022-10-16T09:19:43;3.22;;;0.82;;
54454;SDS011;40364;52.270;10.546;2022-10-16T09:22:15;0.90;;;0.82;;
54454;SDS011;40364;52.270;10.546;2022-10-16T09:24:44;1.02;;;0.80;;
54454;SDS011;40364;52.270;10.546;2022-10-16T09:27:11;0.73;;;0.73;;
54454;SDS011;40364;52.270;10.546;2022-10-16T09:29:39;5.72;;;0.82;;
54454;SDS011;40364;52.270;10.546;2022-10-16T09:32:10;1.08;;;0.80;;
54454;SDS011;40364;52.270;10.546;2022-10-16T09:34:39;3.15;;;0.65;;
54454;SDS011;40364;52.270;10.546;2022-10-16T09:37:11;0.80;;;0.68;;
54454;SDS011;40364;52.270;10.546;2022-10-16T09:39:44;2.45;;;0.75;;
54454;SDS011;40364;52.270;10.546;2022-10-16T09:42:11;1.80;;;0.80;;
54454;SDS011;40364;52.270;10.546;2022-10-16T09:44:42;1.50;;;0.90;;
54454;SDS011;40364;52.270;10.546;2022-10-16T09:47:16;1.48;;;0.95;;
54454;SDS011;40364;52.270;10.546;2022-10-16T09:49:52;1.08;;;0.80;;
54454;SDS011;40364;52.270;10.546;2022-10-16T09:52:21;1.35;;;0.90;;
54454;SDS011;40364;52.270;10.546;2022-10-16T09:54:50;1.42;;;0.73;;
54454;SDS011;40364;52.270;10.546;2022-10-16T09:57:17;0.77;;;0.70;;
54454;SDS011;40364;52.270;10.546;2022-10-16T09:59:47;1.25;;;0.60;;
54454;SDS011;40364;52.270;10.546;2022-10-16T10:02:16;2.40;;;0.95;;
54454;SDS011;40364;52.270;10.546;2022-10-16T10:04:48;0.70;;;0.70;;
54454;SDS011;40364;52.270;10.546;2022-10-16T10:07:20;1.35;;;0.77;;
54454;SDS011;40364;52.270;10.546;2022-10-16T10:09:51;2.90;;;0.50;;
54454;SDS011;40364;52.270;10.546;2022-10-16T10:12:19;3.05;;;0.70;;
54454;SDS011;40364;52.270;10.546;2022-10-16T10:14:48;0.82;;;0.52;;
54454;SDS011;40364;52.270;10.546;2022-10-16T10:17:19;2.47;;;0.65;;
54454;SDS011;40364;52.270;10.546;2022-10-16T10:19:48;4.43;;;0.60;;
54454;SDS011;40364;52.270;10.546;2022-10-16T10:25:15;2.63;;;0.63;;
54454;SDS011;40364;52.270;10.546;2022-10-16T10:27:59;0.68;;;0.55;;
54454;SDS011;40364;52.270;10.546;2022-10-16T10:30:42;2.80;;;0.70;;
54454;SDS011;40364;52.270;10.546;2022-10-16T10:33:20;1.33;;;0.60;;
54454;SDS011;40364;52.270;10.546;2022-10-16T10:35:56;0.40;;;0.40;;
54454;SDS011;40364;52.270;10.546;2022-10-16T10:38:32;2.25;;;0.45;;
54454;SDS011;40364;52.270;10.546;2022-10-16T10:41:10;2.90;;;0.60;;
54454;SDS011;40364;52.270;10.546;2022-10-16T10:43:53;2.15;;;0.65;;
54454;SDS011;40364;52.270;10.546;2022-10-16T10:46:29;1.40;;;0.70;;
54454;SDS011;40364;52.270;10.546;2022-10-16T10:49:08;0.95;;;0.65;;
54454;SDS011;40364;52.270;10.546;2022-10-16T10:51:44;1.20;;;0.60;;
54454;SDS011;40364;52.270;10.546;2022-10-16T10:54:22;1.50;;;0.43;;
54454;SDS011;40364;52.270;10.546;2022-10-16T10:56:57;0.90;;;0.50;;
54454;SDS011;40364;52.270;10.546;2022-10-16T11:02:26;3.53;;;0.60;;
54454;SDS011;40364;52.270;10.546;2022-10-16T11:07:53;0.60;;;0.40;;
54454;SDS011;40364;52.270;10.546;2022-10-16T11:10:27;2.28;;;0.70;;
54454;SDS011;40364;52.270;10.546;2022-10-16T11:12:58;1.75;;;0.50;;
54454;SDS011;40364;52.270;10.546;2022-10-16T11:15:36;3.75;;;0.88;;
54454;SDS011;40364;52.270;10.546;2022-10-16T11:18:06;0.98;;;0.40;;
54454;SDS011;40364;52.270;10.546;2022-10-16T11:20:40;4.07;;;1.00;;
54454;SDS011;40364;52.270;10.546;2022-10-16T11:23:13;2.25;;;0.52;;
54454;SDS011;40364;52.270;10.546;2022-10-16T11:25:44;0.80;;;0.30;;
54454;SDS011;40364;52.270;10.546;2022-10-16T11:28:13;0.77;;;0.40;;
54454;SDS011;40364;52.270;10.546;2022-10-16T11:30:46;3.33;;;0.40;;
54454;SDS011;40364;52.270;10.546;2022-10-16T11:33:22;0.60;;;0.30;;
54454;SDS011;40364;52.270;10.546;2022-10-16T11:35:59;1.85;;;0.40;;
54454;SDS011;40364;52.270;10.546;2022-10-16T11:38:31;1.55;;;0.45;;
54454;SDS011;40364;52.270;10.546;2022-10-16T11:41:03;0.77;;;0.30;;
54454;SDS011;40364;52.270;10.546;2022-10-16T11:43:48;1.55;;;0.40;;
54454;SDS011;40364;52.270;10.546;2022-10-16T11:46:24;1.92;;;0.40;;
54454;SDS011;40364;52.270;10.546;2022-10-16T11:48:55;2.25;;;0.80;;
54454;SDS011;40364;52.270;10.546;2022-10-16T11:51:29;1.45;;;0.40;;
54454;SDS011;40364;52.270;10.546;2022-10-16T11:54:02;2.10;;;0.40;;
54454;SDS011;40364;52.270;10.546;2022-10-16T11:56:36;0.25;;;0.25;;
54454;SDS011;40364;52.270;10.546;2022-10-16T11:59:07;1.17;;;0.47;;
54454;SDS011;40364;52.270;10.546;2022-10-16T12:01:42;1.23;;;0.50;;
54454;SDS011;40364;52.270;10.546;2022-10-16T12:04:14;2.50;;;0.40;;
54454;SDS011;40364;52.270;10.546;2022-10-16T12:06:51;1.02;;;0.50;;
54454;SDS011;40364;52.270;10.546;2022-10-16T12:09:22;1.15;;;0.40;;
54454;SDS011;40364;52.270;10.546;2022-10-16T12:11:52;0.40;;;0.35;;
54454;SDS011;40364;52.270;10.546;2022-10-16T12:14:36;0.77;;;0.52;;
54454;SDS011;40364;52.270;10.546;2022-10-16T12:20:00;1.92;;;0.50;;
54454;SDS011;40364;52.270;10.546;2022-10-16T12:22:41;1.50;;;0.47;;
54454;SDS011;40364;52.270;10.546;2022-10-16T12:25:22;1.55;;;0.60;;
54454;SDS011;40364;52.270;10.546;2022-10-16T12:27:56;4.78;;;0.50;;
54454;SDS011;40364;52.270;10.546;2022-10-16T12:30:26;4.20;;;0.60;;
54454;SDS011;40364;52.270;10.546;2022-10-16T12:32:56;0.57;;;0.22;;
54454;SDS011;40364;52.270;10.546;2022-10-16T12:35:25;3.38;;;0.60;;
54454;SDS011;40364;52.270;10.546;2022-10-16T12:38:03;0.55;;;0.45;;
54454;SDS011;40364;52.270;10.546;2022-10-16T12:40:33;3.83;;;0.50;;
54454;SDS011;40364;52.270;10.546;2022-10-16T12:43:11;2.92;;;0.32;;
54454;SDS011;40364;52.270;10.546;2022-10-16T12:45:39;1.48;;;0.35;;
54454;SDS011;40364;52.270;10.546;2022-10-16T12:48:18;0.82;;;0.50;;
54454;SDS011;40364;52.270;10.546;2022-10-16T12:50:46;1.75;;;0.40;;
54454;SDS011;40364;52.270;10.546;2022-10-16T12:53:23;2.10;;;0.47;;
54454;SDS011;40364;52.270;10.546;2022-10-16T12:55:53;2.13;;;0.60;;
54454;SDS011;40364;52.270;10.546;2022-10-16T12:58:34;1.98;;;0.50;;
54454;SDS011;40364;52.270;10.546;2022-10-16T13:01:21;2.60;;;0.60;;
54454;SDS011;40364;52.270;10.546;2022-10-16T13:04:03;0.68;;;0.30;;
54454;SDS011;40364;52.270;10.546;2022-10-16T13:06:43;0.75;;;0.40;;
54454;SDS011;40364;52.270;10.546;2022-10-16T13:09:28;0.50;;;0.40;;
54454;SDS011;40364;52.270;10.546;2022-10-16T13:12:07;3.00;;;0.50;;
54454;SDS011;40364;52.270;10.546;2022-10-16T13:14:53;4.50;;;0.50;;
54454;SDS011;40364;52.270;10.546;2022-10-16T13:17:43;3.63;;;0.43;;
54454;SDS011;40364;52.270;10.546;2022-10-16T13:20:19;1.05;;;0.30;;
54454;SDS011;40364;52.270;10.546;2022-10-16T13:22:54;1.77;;;0.57;;
54454;SDS011;40364;52.270;10.546;2022-10-16T13:25:34;1.25;;;0.30;;
54454;SDS011;40364;52.270;10.546;2022-10-16T13:28:11;7.13;;;0.30;;
54454;SDS011;40364;52.270;10.546;2022-10-16T13:30:39;3.30;;;0.43;;
54454;SDS011;40364;52.270;10.546;2022-10-16T13:33:12;0.82;;;0.30;;
54454;SDS011;40364;52.270;10.546;2022-10-16T13:35:46;1.90;;;0.30;;
54454;SDS011;40364;52.270;10.546;2022-10-16T13:38:16;1.48;;;0.45;;
54454;SDS011;40364;52.270;10.546;2022-10-16T13:40:52;2.75;;;0.60;;
54454;SDS011;40364;52.270;10.546;2022-10-16T13:43:22;1.90;;;0.70;;
54454;SDS011;40364;52.270;10.546;2022-10-16T13:45:52;1.10;;;0.70;;
54454;SDS011;40364;52.270;10.546;2022-10-16T13:48:24;3.40;;;0.70;;
54454;SDS011;40364;52.270;10.546;2022-10-16T13:51:00;3.13;;;0.73;;
54454;SDS011;40364;52.270;10.546;2022-10-16T13:53:32;1.70;;;0.80;;
54454;SDS011;40364;52.270;10.546;2022-10-16T13:56:03;2.15;;;0.93;;
54454;SDS011;40364;52.270;10.546;2022-10-16T13:58:31;2.17;;;0.77;;
54454;SDS011;40364;52.270;10.546;2022-10-16T14:00:59;1.77;;;0.60;;
54454;SDS011;40364;52.270;10.546;2022-10-16T14:03:27;1.50;;;0.70;;
54454;SDS011;40364;52.270;10.546;2022-10-16T14:05:55;1.50;;;0.70;;
54454;SDS011;40364;52.270;10.546;2022-10-16T14:08:24;1.90;;;0.88;;
54454;SDS011;40364;52.270;10.546;2022-10-16T14:10:53;2.97;;;0.93;;
54454;SDS011;40364;52.270;10.546;2022-10-16T14:13:25;1.70;;;0.80;;
54454;SDS011;40364;52.270;10.546;2022-10-16T14:15:56;2.97;;;0.70;;
54454;SDS011;40364;52.270;10.546;2022-10-16T14:18:24;1.73;;;0.60;;
54454;SDS011;40364;52.270;10.546;2022-10-16T14:20:53;1.63;;;0.70;;
54454;SDS011;40364;52.270;10.546;2022-10-16T14:23:21;0.77;;;0.43;;
54454;SDS011;40364;52.270;10.546;2022-10-16T14:25:51;1.10;;;0.40;;
54454;SDS011;40364;52.270;10.546;2022-10-16T14:28:18;0.77;;;0.40;;
54454;SDS011;40364;52.270;10.546;2022-10-16T14:30:51;3.13;;;0.60;;
54454;SDS011;40364;52.270;10.546;2022-10-16T14:33:20;1.27;;;0.40;;
54454;SDS011;40364;52.270;10.546;2022-10-16T14:36:00;3.58;;;0.70;;
54454;SDS011;40364;52.270;10.546;2022-10-16T14:38:29;0.90;;;0.55;;
54454;SDS011;40364;52.270;10.546;2022-10-16T14:40:56;1.23;;;0.50;;
54454;SDS011;40364;52.270;10.546;2022-10-16T14:43:26;0.95;;;0.70;;
54454;SDS011;40364;52.270;10.546;2022-10-16T14:46:00;2.05;;;0.90;;
54454;SDS011;40364;52.270;10.546;2022-10-16T14:48:29;3.30;;;0.70;;
54454;SDS011;40364;52.270;10.546;2022-10-16T14:50:56;2.08;;;0.70;;
54454;SDS011;40364;52.270;10.546;2022-10-16T14:53:23;3.78;;;0.80;;
54454;SDS011;40364;52.270;10.546;2022-10-16T14:55:50;3.25;;;0.90;;
54454;SDS011;40364;52.270;10.546;2022-10-16T14:58:17;5.93;;;1.27;;
54454;SDS011;40364;52.270;10.546;2022-10-16T15:00:46;4.43;;;0.95;;
54454;SDS011;40364;52.270;10.546;2022-10-16T15:03:15;3.17;;;1.65;;
54454;SDS011;40364;52.270;10.546;2022-10-16T15:05:42;1.27;;;0.80;;
54454;SDS011;40364;52.270;10.546;2022-10-16T15:08:09;1.80;;;0.75;;